sensor_id;sensor_type;location;lat;lon;timestamp;pressure;altitude;pressure_sealevel;temperature;humidity
23473;BME280;11909;52.516;13.564;2024-01-27T00:00:56;101863.03;;;4.82;100.00
23473;BME280;11909;52.516;13.564;2024-01-27T00:03:24;101871.81;;;4.91;100.00
23473;BME280;11909;52.516;13.564;2024-01-27T00:05:51;101881.03;;;4.83;100.00
23473;BME280;11909;52.516;13.564;2024-01-27T00:08:20;101873.72;;;4.83;100.00
23473;BME280;11909;52.516;13.564;2024-01-27T00:10:50;101883.56;;;4.78;100.00
23473;BME280;11909;52.516;13.564;2024-01-27T00:13:18;101884.41;;;4.78;100.00
23473;BME280;11909;52.516;13.564;2024-01-27T00:15:46;101868.47;;;4.82;100.00
23473;BME280;11909;52.516;13.564;2024-01-27T00:18:15;101860.78;;;4.72;100.00
23473;BME280;11909;52.516;13.564;2024-01-27T00:20:43;101863.91;;;4.82;100.00
23473;BME280;11909;52.516;13.564;2024-01-27T00:23:10;101866.81;;;4.81;100.00
23473;BME280;11909;52.516;13.564;2024-01-27T00:25:39;101883.38;;;4.79;100.00
23473;BME280;11909;52.516;13.564;2024-01-27T00:28:08;101881.09;;;4.69;100.00
23473;BME280;11909;52.516;13.564;2024-01-27T00:30:36;101882.13;;;4.68;100.00
23473;BME280;11909;52.516;13.564;2024-01-27T00:33:04;101877.94;;;4.66;100.00
23473;BME280;11909;52.516;13.564;2024-01-27T00:35:33;101895.75;;;4.62;100.00
23473;BME280;11909;52.516;13.564;2024-01-27T00:38:01;101891.59;;;4.52;100.00
23473;BME280;11909;52.516;13.564;2024-01-27T00:40:29;101895.53;;;4.56;100.00
23473;BME280;11909;52.516;13.564;2024-01-27T00:42:57;101895.13;;;4.59;100.00
23473;BME280;11909;52.516;13.564;2024-01-27T00:45:26;101883.38;;;4.59;100.00
23473;BME280;11909;52.516;13.564;2024-01-27T00:47:57;101890.72;;;4.65;100.00
23473;BME280;11909;52.516;13.564;2024-01-27T00:50:25;101896.97;;;4.72;100.00
23473;BME280;11909;52.516;13.564;2024-01-27T00:52:53;101900.13;;;4.63;100.00
23473;BME280;11909;52.516;13.564;2024-01-27T00:55:24;101903.47;;;4.65;100.00
23473;BME280;11909;52.516;13.564;2024-01-27T00:57:52;101896.13;;;4.72;100.00
23473;BME280;11909;52.516;13.564;2024-01-27T01:00:20;101909.31;;;4.75;100.00
23473;BME280;11909;52.516;13.564;2024-01-27T01:02:50;101900.53;;;4.73;100.00
23473;BME280;11909;52.516;13.564;2024-01-27T01:05:18;101895.94;;;4.67;100.00
23473;BME280;11909;52.516;13.564;2024-01-27T01:07:46;101913.09;;;4.61;100.00
23473;BME280;11909;52.516;13.564;2024-01-27T01:10:13;101911.00;;;4.63;100.00
23473;BME280;11909;52.516;13.564;2024-01-27T01:12:42;101900.78;;;4.51;100.00
23473;BME280;11909;52.516;13.564;2024-01-27T01:15:10;101910.59;;;4.59;100.00
23473;BME280;11909;52.516;13.564;2024-01-27T01:17:39;101929.00;;;4.57;100.00
23473;BME280;11909;52.516;13.564;2024-01-27T01:20:09;101932.56;;;4.64;100.00
23473;BME280;11909;52.516;13.564;2024-01-27T01:22:37;101931.50;;;4.65;100.00
23473;BME280;11909;52.516;13.564;2024-01-27T01:25:05;101928.56;;;4.60;100.00
23473;BME280;11909;52.516;13.564;2024-01-27T01:27:33;101934.44;;;4.70;100.00
23473;BME280;11909;52.516;13.564;2024-01-27T01:30:01;101938.63;;;4.66;100.00
23473;BME280;11909;52.516;13.564;2024-01-27T01:32:29;101935.28;;;4.57;100.00
23473;BME280;11909;52.516;13.564;2024-01-27T01:34:57;101933.81;;;4.62;100.00
23473;BME280;11909;52.516;13.564;2024-01-27T01:37:26;101935.47;;;4.69;100.00
23473;BME280;11909;52.516;13.564;2024-01-27T01:39:54;101939.44;;;4.73;100.00
23473;BME280;11909;52.516;13.564;2024-01-27T01:42:22;101955.13;;;4.65;100.00
23473;BME280;11909;52.516;13.564;2024-01-27T01:44:52;101945.31;;;4.64;100.00
23473;BME280;11909;52.516;13.564;2024-01-27T01:47:19;101955.38;;;4.63;100.00
23473;BME280;11909;52.516;13.564;2024-01-27T01:49:48;101951.78;;;4.56;100.00
23473;BME280;11909;52.516;13.564;2024-01-27T01:52:16;101947.19;;;4.56;100.00
23473;BME280;11909;52.516;13.564;2024-01-27T01:54:48;101955.56;;;4.62;100.00
23473;BME280;11909;52.516;13.564;2024-01-27T01:57:16;101946.78;;;4.53;100.00
23473;BME280;11909;52.516;13.564;2024-01-27T01:59:45;101945.94;;;4.66;100.00
23473;BME280;11909;52.516;13.564;2024-01-27T02:02:14;101964.13;;;4.58;100.00
23473;BME280;11909;52.516;13.564;2024-01-27T02:04:43;101956.22;;;4.50;100.00
23473;BME280;11909;52.516;13.564;2024-01-27T02:07:12;101963.94;;;4.53;100.00
23473;BME280;11909;52.516;13.564;2024-01-27T02:09:41;101966.03;;;4.44;100.00
23473;BME280;11909;52.516;13.564;2024-01-27T02:12:10;101972.50;;;4.43;100.00
23473;BME280;11909;52.516;13.564;2024-01-27T02:14:38;101980.03;;;4.35;100.00
23473;BME280;11909;52.516;13.564;2024-01-27T02:17:06;101969.16;;;4.48;100.00
23473;BME280;11909;52.516;13.564;2024-01-27T02:19:34;101986.31;;;4.49;100.00
23473;BME280;11909;52.516;13.564;2024-01-27T02:22:03;101970.63;;;4.44;100.00
23473;BME280;11909;52.516;13.564;2024-01-27T02:24:32;101993.63;;;4.48;100.00
23473;BME280;11909;52.516;13.564;2024-01-27T02:27:00;101986.72;;;4.59;100.00
23473;BME280;11909;52.516;13.564;2024-01-27T02:29:28;101972.28;;;4.52;100.00
23473;BME280;11909;52.516;13.564;2024-01-27T02:31:56;101989.66;;;4.51;100.00
23473;BME280;11909;52.516;13.564;2024-01-27T02:34:24;101992.16;;;4.45;100.00
23473;BME280;11909;52.516;13.564;2024-01-27T02:36:52;101995.94;;;4.44;100.00
23473;BME280;11909;52.516;13.564;2024-01-27T02:39:20;101971.25;;;4.46;100.00
23473;BME280;11909;52.516;13.564;2024-01-27T02:41:50;101977.97;;;4.50;100.00
23473;BME280;11909;52.516;13.564;2024-01-27T02:44:18;101994.69;;;4.40;100.00
23473;BME280;11909;52.516;13.564;2024-01-27T02:46:46;101998.44;;;4.39;100.00
23473;BME280;11909;52.516;13.564;2024-01-27T02:49:14;101994.44;;;4.42;100.00
23473;BME280;11909;52.516;13.564;2024-01-27T02:51:41;101997.19;;;4.42;100.00
23473;BME280;11909;52.516;13.564;2024-01-27T02:54:11;101998.22;;;4.48;100.00
23473;BME280;11909;52.516;13.564;2024-01-27T02:56:38;101993.00;;;4.53;100.00
23473;BME280;11909;52.516;13.564;2024-01-27T02:59:08;102008.88;;;4.56;100.00
23473;BME280;11909;52.516;13.564;2024-01-27T03:01:36;102003.69;;;4.54;100.00
23473;BME280;11909;52.516;13.564;2024-01-27T03:04:04;102001.56;;;4.50;100.00
23473;BME280;11909;52.516;13.564;2024-01-27T03:06:32;102007.00;;;4.50;100.00
23473;BME280;11909;52.516;13.564;2024-01-27T03:09:00;102009.09;;;4.41;100.00
23473;BME280;11909;52.516;13.564;2024-01-27T03:11:28;102012.66;;;4.48;100.00
23473;BME280;11909;52.516;13.564;2024-01-27T03:13:55;102006.16;;;4.56;100.00
23473;BME280;11909;52.516;13.564;2024-01-27T03:16:25;102011.19;;;4.59;100.00
23473;BME280;11909;52.516;13.564;2024-01-27T03:18:53;102022.91;;;4.59;100.00
23473;BME280;11909;52.516;13.564;2024-01-27T03:21:21;102025.44;;;4.54;100.00
23473;BME280;11909;52.516;13.564;2024-01-27T03:23:49;102021.84;;;4.47;100.00
23473;BME280;11909;52.516;13.564;2024-01-27T03:26:17;102005.13;;;4.43;100.00
23473;BME280;11909;52.516;13.564;2024-01-27T03:28:45;102014.09;;;4.37;100.00
23473;BME280;11909;52.516;13.564;2024-01-27T03:31:13;102030.88;;;4.54;100.00
23473;BME280;11909;52.516;13.564;2024-01-27T03:33:42;102016.41;;;4.47;100.00
23473;BME280;11909;52.516;13.564;2024-01-27T03:36:10;102034.00;;;4.44;100.00
23473;BME280;11909;52.516;13.564;2024-01-27T03:38:40;102023.31;;;4.43;100.00
23473;BME280;11909;52.516;13.564;2024-01-27T03:41:08;102022.50;;;4.42;100.00
23473;BME280;11909;52.516;13.564;2024-01-27T03:43:36;102023.53;;;4.35;100.00
23473;BME280;11909;52.516;13.564;2024-01-27T03:46:04;102021.00;;;4.33;100.00
23473;BME280;11909;52.516;13.564;2024-01-27T03:48:32;102033.97;;;4.38;100.00
23473;BME280;11909;52.516;13.564;2024-01-27T03:51:03;102030.41;;;4.30;100.00
23473;BME280;11909;52.516;13.564;2024-01-27T03:53:32;102035.59;;;4.12;100.00
23473;BME280;11909;52.516;13.564;2024-01-27T03:56:00;102038.94;;;4.14;100.00
23473;BME280;11909;52.516;13.564;2024-01-27T03:58:29;102057.78;;;4.15;100.00
23473;BME280;11909;52.516;13.564;2024-01-27T04:00:57;102048.78;;;4.15;100.00
23473;BME280;11909;52.516;13.564;2024-01-27T04:03:25;102057.78;;;4.15;100.00
23473;BME280;11909;52.516;13.564;2024-01-27T04:05:53;102052.72;;;4.06;100.00
23473;BME280;11909;52.516;13.564;2024-01-27T04:08:22;102049.38;;;4.10;100.00
23473;BME280;11909;52.516;13.564;2024-01-27T04:10:51;102053.13;;;4.02;100.00
23473;BME280;11909;52.516;13.564;2024-01-27T04:13:18;102059.19;;;3.98;100.00
23473;BME280;11909;52.516;13.564;2024-01-27T04:15:46;102070.06;;;4.05;100.00
23473;BME280;11909;52.516;13.564;2024-01-27T04:18:14;102061.03;;;3.97;100.00
23473;BME280;11909;52.516;13.564;2024-01-27T04:20:43;102071.69;;;3.92;100.00
23473;BME280;11909;52.516;13.564;2024-01-27T04:23:12;102072.13;;;3.96;100.00
23473;BME280;11909;52.516;13.564;2024-01-27T04:25:42;102071.28;;;3.95;100.00
23473;BME280;11909;52.516;13.564;2024-01-27T04:28:10;102075.03;;;3.94;100.00
23473;BME280;11909;52.516;13.564;2024-01-27T04:30:39;102079.44;;;3.95;100.00
23473;BME280;11909;52.516;13.564;2024-01-27T04:33:07;102090.88;;;3.84;100.00
23473;BME280;11909;52.516;13.564;2024-01-27T04:35:35;102094.91;;;3.95;100.00
23473;BME280;11909;52.516;13.564;2024-01-27T04:38:03;102097.59;;;3.88;100.00
23473;BME280;11909;52.516;13.564;2024-01-27T04:40:31;102103.19;;;3.86;100.00
23473;BME280;11909;52.516;13.564;2024-01-27T04:43:00;102105.78;;;4.01;100.00
23473;BME280;11909;52.516;13.564;2024-01-27T04:45:27;102109.34;;;4.02;100.00
23473;BME280;11909;52.516;13.564;2024-01-27T04:47:56;102103.50;;;4.05;100.00
23473;BME280;11909;52.516;13.564;2024-01-27T04:50:24;102119.56;;;4.00;100.00
23473;BME280;11909;52.516;13.564;2024-01-27T04:52:52;102117.53;;;4.09;100.00
23473;BME280;11909;52.516;13.564;2024-01-27T04:55:20;102116.00;;;3.99;100.00
23473;BME280;11909;52.516;13.564;2024-01-27T04:57:48;102114.56;;;4.04;100.00
23473;BME280;11909;52.516;13.564;2024-01-27T05:00:17;102121.69;;;4.11;100.00
23473;BME280;11909;52.516;13.564;2024-01-27T05:02:45;102089.91;;;4.05;100.00
23473;BME280;11909;52.516;13.564;2024-01-27T05:05:13;102128.16;;;4.10;100.00
23473;BME280;11909;52.516;13.564;2024-01-27T05:07:41;102133.22;;;4.20;100.00
23473;BME280;11909;52.516;13.564;2024-01-27T05:10:10;102124.22;;;4.13;100.00
23473;BME280;11909;52.516;13.564;2024-01-27T05:12:39;102144.91;;;4.14;100.00
23473;BME280;11909;52.516;13.564;2024-01-27T05:15:07;102144.25;;;4.05;100.00
23473;BME280;11909;52.516;13.564;2024-01-27T05:17:38;102139.06;;;4.17;100.00
23473;BME280;11909;52.516;13.564;2024-01-27T05:20:07;102156.22;;;4.18;100.00
23473;BME280;11909;52.516;13.564;2024-01-27T05:22:35;102163.34;;;4.19;100.00
23473;BME280;11909;52.516;13.564;2024-01-27T05:25:04;102178.38;;;4.21;100.00
23473;BME280;11909;52.516;13.564;2024-01-27T05:27:32;102159.56;;;4.20;100.00
23473;BME280;11909;52.516;13.564;2024-01-27T05:30:00;102149.13;;;4.16;100.00
23473;BME280;11909;52.516;13.564;2024-01-27T05:32:28;102147.19;;;4.10;100.00
23473;BME280;11909;52.516;13.564;2024-01-27T05:34:57;102160.84;;;4.24;100.00
23473;BME280;11909;52.516;13.564;2024-01-27T05:37:25;102161.88;;;4.23;100.00
23473;BME280;11909;52.516;13.564;2024-01-27T05:39:53;102151.38;;;4.13;100.00
23473;BME280;11909;52.516;13.564;2024-01-27T05:42:21;102158.09;;;4.17;100.00
23473;BME280;11909;52.516;13.564;2024-01-27T05:44:49;102154.75;;;4.15;100.00
23473;BME280;11909;52.516;13.564;2024-01-27T05:47:17;102157.06;;;4.18;100.00
23473;BME280;11909;52.516;13.564;2024-01-27T05:49:45;102159.78;;;4.18;100.00
23473;BME280;11909;52.516;13.564;2024-01-27T05:52:15;102168.56;;;4.20;100.00
23473;BME280;11909;52.516;13.564;2024-01-27T05:54:51;102161.84;;;4.16;100.00
23473;BME280;11909;52.516;13.564;2024-01-27T05:57:19;102161.81;;;4.09;100.00
23473;BME280;11909;52.516;13.564;2024-01-27T05:59:48;102165.59;;;4.15;100.00
23473;BME280;11909;52.516;13.564;2024-01-27T06:02:16;102171.50;;;4.25;100.00
23473;BME280;11909;52.516;13.564;2024-01-27T06:04:45;102179.88;;;4.24;100.00
23473;BME280;11909;52.516;13.564;2024-01-27T06:07:14;102183.22;;;4.26;100.00
23473;BME280;11909;52.516;13.564;2024-01-27T06:09:42;102189.28;;;4.28;100.00
23473;BME280;11909;52.516;13.564;2024-01-27T06:12:10;102202.44;;;4.18;100.00
23473;BME280;11909;52.516;13.564;2024-01-27T06:14:38;102194.91;;;4.20;100.00
23473;BME280;11909;52.516;13.564;2024-01-27T06:17:06;102204.09;;;4.19;100.00
23473;BME280;11909;52.516;13.564;2024-01-27T06:19:34;102205.59;;;4.28;100.00
23473;BME280;11909;52.516;13.564;2024-01-27T06:22:02;102209.16;;;4.28;100.00
23473;BME280;11909;52.516;13.564;2024-01-27T06:24:33;102206.81;;;4.25;100.00
23473;BME280;11909;52.516;13.564;2024-01-27T06:27:01;102215.22;;;4.30;100.00
23473;BME280;11909;52.516;13.564;2024-01-27T06:29:30;102221.72;;;4.36;100.00
23473;BME280;11909;52.516;13.564;2024-01-27T06:31:58;102233.44;;;4.37;100.00
23473;BME280;11909;52.516;13.564;2024-01-27T06:34:25;102239.69;;;4.37;100.00
23473;BME280;11909;52.516;13.564;2024-01-27T06:36:54;102236.75;;;4.32;100.00
23473;BME280;11909;52.516;13.564;2024-01-27T06:39:22;102234.28;;;4.37;100.00
23473;BME280;11909;52.516;13.564;2024-01-27T06:41:51;102239.06;;;4.28;100.00
23473;BME280;11909;52.516;13.564;2024-01-27T06:44:19;102245.81;;;4.39;100.00
23473;BME280;11909;52.516;13.564;2024-01-27T06:46:47;102247.91;;;4.44;100.00
23473;BME280;11909;52.516;13.564;2024-01-27T06:49:16;102256.28;;;4.42;100.00
23473;BME280;11909;52.516;13.564;2024-01-27T06:51:45;102255.81;;;4.39;100.00
23473;BME280;11909;52.516;13.564;2024-01-27T06:54:13;102270.09;;;4.48;100.00
23473;BME280;11909;52.516;13.564;2024-01-27T06:56:41;102271.72;;;4.42;100.00
23473;BME280;11909;52.516;13.564;2024-01-27T06:59:10;102277.03;;;4.57;100.00
23473;BME280;11909;52.516;13.564;2024-01-27T07:01:38;102282.03;;;4.53;100.00
23473;BME280;11909;52.516;13.564;2024-01-27T07:04:06;102278.28;;;4.54;100.00
23473;BME280;11909;52.516;13.564;2024-01-27T07:06:34;102282.84;;;4.47;100.00
23473;BME280;11909;52.516;13.564;2024-01-27T07:09:02;102279.94;;;4.49;100.00
23473;BME280;11909;52.516;13.564;2024-01-27T07:11:30;102293.97;;;4.52;100.00
23473;BME280;11909;52.516;13.564;2024-01-27T07:13:58;102289.16;;;4.54;100.00
23473;BME280;11909;52.516;13.564;2024-01-27T07:16:27;102297.72;;;4.51;100.00
23473;BME280;11909;52.516;13.564;2024-01-27T07:18:55;102300.41;;;4.44;100.00
23473;BME280;11909;52.516;13.564;2024-01-27T07:21:23;102306.47;;;4.47;100.00
23473;BME280;11909;52.516;13.564;2024-01-27T07:23:53;102303.75;;;4.47;100.00
23473;BME280;11909;52.516;13.564;2024-01-27T07:26:21;102308.19;;;4.54;100.00
23473;BME280;11909;52.516;13.564;2024-01-27T07:28:49;102312.31;;;4.43;100.00
23473;BME280;11909;52.516;13.564;2024-01-27T07:31:17;102314.81;;;4.45;100.00
23473;BME280;11909;52.516;13.564;2024-01-27T07:33:47;102311.06;;;4.46;100.00
23473;BME280;11909;52.516;13.564;2024-01-27T07:36:15;102320.06;;;4.47;100.00
23473;BME280;11909;52.516;13.564;2024-01-27T07:38:43;102326.56;;;4.45;100.00
23473;BME280;11909;52.516;13.564;2024-01-27T07:41:11;102328.41;;;4.45;100.00
23473;BME280;11909;52.516;13.564;2024-01-27T07:43:39;102332.03;;;4.59;100.00
23473;BME280;11909;52.516;13.564;2024-01-27T07:46:08;102328.28;;;4.53;100.00
23473;BME280;11909;52.516;13.564;2024-01-27T07:48:36;102332.22;;;4.51;100.00
23473;BME280;11909;52.516;13.564;2024-01-27T07:51:06;102327.66;;;4.58;100.00
23473;BME280;11909;52.516;13.564;2024-01-27T07:53:33;102339.41;;;4.65;100.00
23473;BME280;11909;52.516;13.564;2024-01-27T07:56:02;102339.56;;;4.57;100.00
23473;BME280;11909;52.516;13.564;2024-01-27T07:58:33;102351.13;;;4.66;100.00
23473;BME280;11909;52.516;13.564;2024-01-27T08:01:02;102351.34;;;4.64;100.00
23473;BME280;11909;52.516;13.564;2024-01-27T08:03:30;102363.44;;;4.62;100.00
23473;BME280;11909;52.516;13.564;2024-01-27T08:05:57;102367.03;;;4.62;100.00
23473;BME280;11909;52.516;13.564;2024-01-27T08:08:27;102364.03;;;4.50;100.00
23473;BME280;11909;52.516;13.564;2024-01-27T08:10:55;102357.53;;;4.51;100.00
23473;BME280;11909;52.516;13.564;2024-01-27T08:13:23;102352.28;;;4.50;100.00
23473;BME280;11909;52.516;13.564;2024-01-27T08:15:50;102356.50;;;4.52;100.00
23473;BME280;11909;52.516;13.564;2024-01-27T08:18:20;102358.41;;;4.58;100.00
23473;BME280;11909;52.516;13.564;2024-01-27T08:20:47;102352.97;;;4.58;100.00
23473;BME280;11909;52.516;13.564;2024-01-27T08:23:15;102356.38;;;4.67;100.00
23473;BME280;11909;52.516;13.564;2024-01-27T08:25:45;102371.59;;;4.62;100.00
23473;BME280;11909;52.516;13.564;2024-01-27T08:28:16;102372.06;;;4.65;100.00
23473;BME280;11909;52.516;13.564;2024-01-27T08:30:44;102369.34;;;4.72;100.00
23473;BME280;11909;52.516;13.564;2024-01-27T08:33:12;102373.78;;;4.80;100.00
23473;BME280;11909;52.516;13.564;2024-01-27T08:35:41;102379.44;;;4.78;100.00
23473;BME280;11909;52.516;13.564;2024-01-27T08:38:09;102388.66;;;4.84;100.00
23473;BME280;11909;52.516;13.564;2024-01-27T08:40:37;102377.78;;;4.84;100.00
23473;BME280;11909;52.516;13.564;2024-01-27T08:43:06;102374.03;;;4.85;100.00
23473;BME280;11909;52.516;13.564;2024-01-27T08:45:34;102382.41;;;4.83;100.00
23473;BME280;11909;52.516;13.564;2024-01-27T08:48:02;102384.94;;;4.92;100.00
23473;BME280;11909;52.516;13.564;2024-01-27T08:50:30;102381.38;;;4.91;100.00
23473;BME280;11909;52.516;13.564;2024-01-27T08:52:59;102391.78;;;4.81;100.00
23473;BME280;11909;52.516;13.564;2024-01-27T08:55:27;102387.03;;;4.90;100.00
23473;BME280;11909;52.516;13.564;2024-01-27T08:57:56;102389.16;;;4.94;100.00
23473;BME280;11909;52.516;13.564;2024-01-27T09:00:26;102397.53;;;4.99;100.00
23473;BME280;11909;52.516;13.564;2024-01-27T09:02:54;102398.22;;;5.08;100.00
23473;BME280;11909;52.516;13.564;2024-01-27T09:05:22;102405.78;;;5.13;100.00
23473;BME280;11909;52.516;13.564;2024-01-27T09:07:51;102403.44;;;5.03;100.00
23473;BME280;11909;52.516;13.564;2024-01-27T09:10:19;102409.69;;;5.03;100.00
23473;BME280;11909;52.516;13.564;2024-01-27T09:12:47;102410.00;;;5.22;100.00
23473;BME280;11909;52.516;13.564;2024-01-27T09:15:14;102407.22;;;5.09;100.00
23473;BME280;11909;52.516;13.564;2024-01-27T09:17:44;102416.19;;;5.02;100.00
23473;BME280;11909;52.516;13.564;2024-01-27T09:20:12;102412.22;;;5.05;100.00
23473;BME280;11909;52.516;13.564;2024-01-27T09:22:40;102415.66;;;5.21;100.00
23473;BME280;11909;52.516;13.564;2024-01-27T09:25:08;102425.66;;;5.13;100.00
23473;BME280;11909;52.516;13.564;2024-01-27T09:27:36;102421.47;;;5.17;100.00
23473;BME280;11909;52.516;13.564;2024-01-27T09:30:05;102422.97;;;5.20;100.00
23473;BME280;11909;52.516;13.564;2024-01-27T09:32:34;102419.19;;;5.21;100.00
23473;BME280;11909;52.516;13.564;2024-01-27T09:35:04;102430.09;;;5.21;100.00
23473;BME280;11909;52.516;13.564;2024-01-27T09:37:32;102429.25;;;5.27;100.00
23473;BME280;11909;52.516;13.564;2024-01-27T09:40:00;102435.38;;;5.36;100.00
23473;BME280;11909;52.516;13.564;2024-01-27T09:42:30;102437.69;;;5.33;100.00
23473;BME280;11909;52.516;13.564;2024-01-27T09:45:01;102452.97;;;5.40;100.00
23473;BME280;11909;52.516;13.564;2024-01-27T09:47:29;102456.13;;;5.37;100.00
23473;BME280;11909;52.516;13.564;2024-01-27T09:49:58;102454.47;;;5.43;100.00
23473;BME280;11909;52.516;13.564;2024-01-27T09:52:27;102463.47;;;5.37;100.00
23473;BME280;11909;52.516;13.564;2024-01-27T09:54:55;102457.78;;;5.38;100.00
23473;BME280;11909;52.516;13.564;2024-01-27T09:57:23;102468.28;;;5.41;100.00
23473;BME280;11909;52.516;13.564;2024-01-27T09:59:51;102460.94;;;5.35;100.00
23473;BME280;11909;52.516;13.564;2024-01-27T10:02:20;102471.44;;;5.45;100.00
23473;BME280;11909;52.516;13.564;2024-01-27T10:04:48;102472.25;;;5.39;100.00
23473;BME280;11909;52.516;13.564;2024-01-27T10:07:17;102465.78;;;5.40;100.00
23473;BME280;11909;52.516;13.564;2024-01-27T10:09:49;102469.13;;;5.42;100.00
23473;BME280;11909;52.516;13.564;2024-01-27T10:12:20;102472.72;;;5.49;100.00
23473;BME280;11909;52.516;13.564;2024-01-27T10:14:49;102470.44;;;5.53;100.00
23473;BME280;11909;52.516;13.564;2024-01-27T10:17:22;102474.22;;;5.58;100.00
23473;BME280;11909;52.516;13.564;2024-01-27T10:19:59;102476.31;;;5.56;100.00
23473;BME280;11909;52.516;13.564;2024-01-27T10:22:28;102479.84;;;5.50;100.00
23473;BME280;11909;52.516;13.564;2024-01-27T10:24:57;102483.28;;;5.72;100.00
23473;BME280;11909;52.516;13.564;2024-01-27T10:27:25;102492.47;;;5.65;100.00
23473;BME280;11909;52.516;13.564;2024-01-27T10:29:53;102494.56;;;5.63;100.00
23473;BME280;11909;52.516;13.564;2024-01-27T10:32:22;102494.34;;;5.57;100.00
23473;BME280;11909;52.516;13.564;2024-01-27T10:35:01;102487.44;;;5.62;100.00
23473;BME280;11909;52.516;13.564;2024-01-27T10:37:29;102489.31;;;5.61;100.00
23473;BME280;11909;52.516;13.564;2024-01-27T10:40:06;102489.34;;;5.74;100.00
23473;BME280;11909;52.516;13.564;2024-01-27T10:42:35;102497.34;;;5.89;100.00
23473;BME280;11909;52.516;13.564;2024-01-27T10:45:04;102494.84;;;5.81;100.00
23473;BME280;11909;52.516;13.564;2024-01-27T10:47:33;102493.94;;;5.74;100.00
23473;BME280;11909;52.516;13.564;2024-01-27T10:50:01;102489.34;;;5.74;100.00
23473;BME280;11909;52.516;13.564;2024-01-27T10:52:31;102497.16;;;5.84;100.00
23473;BME280;11909;52.516;13.564;2024-01-27T10:55:02;102495.88;;;5.80;100.00
23473;BME280;11909;52.516;13.564;2024-01-27T10:57:36;102506.97;;;5.79;100.00
23473;BME280;11909;52.516;13.564;2024-01-27T11:00:05;102511.38;;;5.80;100.00
23473;BME280;11909;52.516;13.564;2024-01-27T11:02:35;102513.69;;;5.83;100.00
23473;BME280;11909;52.516;13.564;2024-01-27T11:05:10;102513.06;;;5.81;100.00
23473;BME280;11909;52.516;13.564;2024-01-27T11:07:39;102505.31;;;5.84;100.00
23473;BME280;11909;52.516;13.564;2024-01-27T11:10:09;102497.56;;;5.81;100.00
23473;BME280;11909;52.516;13.564;2024-01-27T11:12:39;102505.94;;;5.86;100.00
23473;BME280;11909;52.516;13.564;2024-01-27T11:15:07;102512.66;;;5.91;100.00
23473;BME280;11909;52.516;13.564;2024-01-27T11:17:39;102512.69;;;5.97;100.00
23473;BME280;11909;52.516;13.564;2024-01-27T11:20:09;102517.69;;;5.87;100.00
23473;BME280;11909;52.516;13.564;2024-01-27T11:22:38;102519.75;;;5.85;100.00
23473;BME280;11909;52.516;13.564;2024-01-27T11:25:15;102512.44;;;5.85;100.00
23473;BME280;11909;52.516;13.564;2024-01-27T11:27:46;102511.00;;;5.89;100.00
23473;BME280;11909;52.516;13.564;2024-01-27T11:30:26;102524.69;;;6.03;100.00
23473;BME280;11909;52.516;13.564;2024-01-27T11:32:55;102525.47;;;5.97;100.00
23473;BME280;11909;52.516;13.564;2024-01-27T11:35:25;102521.06;;;5.89;100.00
23473;BME280;11909;52.516;13.564;2024-01-27T11:37:54;102520.22;;;5.95;100.00
23473;BME280;11909;52.516;13.564;2024-01-27T11:40:22;102538.91;;;5.98;100.00
23473;BME280;11909;52.516;13.564;2024-01-27T11:42:58;102541.44;;;6.00;100.00
23473;BME280;11909;52.516;13.564;2024-01-27T11:45:26;102539.94;;;5.97;100.00
23473;BME280;11909;52.516;13.564;2024-01-27T11:47:56;102546.88;;;6.00;100.00
23473;BME280;11909;52.516;13.564;2024-01-27T11:50:24;102535.72;;;5.95;100.00
23473;BME280;11909;52.516;13.564;2024-01-27T11:52:51;102541.19;;;5.95;100.00
23473;BME280;11909;52.516;13.564;2024-01-27T11:55:20;102550.00;;;5.90;100.00
23473;BME280;11909;52.516;13.564;2024-01-27T11:57:48;102547.69;;;5.94;100.00
23473;BME280;11909;52.516;13.564;2024-01-27T12:00:18;102556.28;;;5.91;100.00
23473;BME280;11909;52.516;13.564;2024-01-27T12:02:50;102552.50;;;5.92;100.00
23473;BME280;11909;52.516;13.564;2024-01-27T12:05:18;102553.56;;;5.97;100.00
23473;BME280;11909;52.516;13.564;2024-01-27T12:07:46;102545.38;;;5.91;100.00
23473;BME280;11909;52.516;13.564;2024-01-27T12:10:14;102552.53;;;5.98;100.00
23473;BME280;11909;52.516;13.564;2024-01-27T12:12:42;102553.13;;;5.94;100.00
23473;BME280;11909;52.516;13.564;2024-01-27T12:15:10;102551.66;;;5.98;100.00
23473;BME280;11909;52.516;13.564;2024-01-27T12:17:40;102560.91;;;5.97;100.00
23473;BME280;11909;52.516;13.564;2024-01-27T12:20:14;102563.06;;;6.08;100.00
23473;BME280;11909;52.516;13.564;2024-01-27T12:22:43;102569.34;;;6.09;100.00
23473;BME280;11909;52.516;13.564;2024-01-27T12:25:12;102582.78;;;6.10;100.00
23473;BME280;11909;52.516;13.564;2024-01-27T12:27:41;102592.19;;;6.01;100.00
23473;BME280;11909;52.516;13.564;2024-01-27T12:30:10;102576.00;;;5.99;100.00
23473;BME280;11909;52.516;13.564;2024-01-27T12:32:38;102585.03;;;6.00;100.00
23473;BME280;11909;52.516;13.564;2024-01-27T12:35:08;102585.72;;;6.02;100.00
23473;BME280;11909;52.516;13.564;2024-01-27T12:37:36;102586.34;;;6.04;100.00
23473;BME280;11909;52.516;13.564;2024-01-27T12:40:17;102588.22;;;6.03;100.00
23473;BME280;11909;52.516;13.564;2024-01-27T12:42:49;102582.69;;;5.97;100.00
23473;BME280;11909;52.516;13.564;2024-01-27T12:45:17;102590.47;;;5.93;100.00
23473;BME280;11909;52.516;13.564;2024-01-27T12:47:46;102583.97;;;5.94;100.00